Time;durP1;ratioP1;P1;durP2;ratioP2;P2;SDS_P1;SDS_P2;PMS_P1;PMS_P2;Temp;Humidity;BMP_temperature;BMP_pressure;BME280_temperature;BME280_humidity;BME280_pressure;Samples;Min_cycle;Max_cycle;Signal;HPM_P1;HPM_P2
2023/04/02 00:00:08;;;;;;;4.00;3.70;;;;;;;7.94;100.00;99057.69;10481477;28;20049;-73
2023/04/02 00:05:29;;;;;;;4.43;4.10;;;;;;;7.92;100.00;99067.34;10499325;28;20041;-73
2023/04/02 00:10:49;;;;;;;3.83;3.53;;;;;;;7.88;100.00;99077.97;10480577;28;20048;-73
2023/04/02 00:15:56;;;;;;;2.80;2.60;;;;;;;7.56;100.00;99078.22;10500807;28;20490;-73
2023/04/02 00:21:07;;;;;;;2.80;2.60;;;;;;;7.44;100.00;99096.09;10499524;28;20070;-73
2023/04/02 00:26:28;;;;;;;3.00;2.70;;;;;;;7.42;100.00;99098.75;10485431;28;20048;-73
2023/04/02 00:31:30;;;;;;;2.60;2.40;;;;;;;7.39;100.00;99111.91;10506961;28;20520;-73
2023/04/02 00:36:33;;;;;;;2.67;2.47;;;;;;;7.32;100.00;99124.34;10506304;28;20040;-74
2023/04/02 00:41:37;;;;;;;2.80;2.60;;;;;;;7.22;100.00;99135.19;10506687;28;20119;-73
2023/04/02 00:46:45;;;;;;;3.15;2.95;;;;;;;7.16;100.00;99151.03;10487411;28;20041;-73
2023/04/02 00:51:58;;;;;;;3.63;3.08;;;;;;;7.01;100.00;99152.38;10505625;28;20033;-72
2023/04/02 00:57:00;;;;;;;3.53;3.10;;;;;;;6.97;100.00;99167.31;10486975;28;20128;-72
2023/04/02 01:02:16;;;;;;;3.60;3.35;;;;;;;6.88;100.00;99166.72;10504355;28;20120;-73
2023/04/02 01:07:41;;;;;;;4.32;4.03;;;;;;;6.66;100.00;99179.56;10505084;28;20028;-72
2023/04/02 01:13:01;;;;;;;5.47;5.07;;;;;;;6.58;100.00;99196.31;10484650;28;20068;-73
2023/04/02 01:18:09;;;;;;;5.20;4.80;;;;;;;6.35;100.00;99203.09;10495685;28;20048;-72
2023/04/02 01:23:10;;;;;;;5.63;5.13;;;;;;;6.39;100.00;99208.19;10470733;28;20048;-74
2023/04/02 01:28:19;;;;;;;5.35;4.95;;;;;;;6.52;100.00;99216.53;10485736;28;20043;-72
2023/04/02 01:33:27;;;;;;;5.60;5.20;;;;;;;6.44;100.00;99224.56;10503357;28;20052;-72
2023/04/02 01:39:01;;;;;;;4.80;4.40;;;;;;;6.42;100.00;99246.38;10484718;28;20398;-72
2023/04/02 01:44:11;;;;;;;4.43;4.13;;;;;;;6.21;100.00;99242.63;10503587;28;20047;-72
2023/04/02 01:49:17;;;;;;;4.90;4.50;;;;;;;6.18;100.00;99264.44;10502732;28;20497;-72
2023/04/02 01:54:20;;;;;;;4.70;4.20;;;;;;;6.23;100.00;99262.56;10484271;28;20045;-72
2023/04/02 01:59:22;;;;;;;4.65;4.25;;;;;;;6.16;100.00;99281.91;10483410;28;20505;-72
2023/04/02 02:04:31;;;;;;;4.82;4.47;;;;;;;6.09;100.00;99289.91;10486373;28;20135;-72
2023/04/02 02:09:34;;;;;;;4.50;4.10;;;;;;;5.80;100.00;99300.16;10502682;28;20044;-73
2023/04/02 02:14:36;;;;;;;3.50;3.30;;;;;;;5.57;100.00;99299.81;10501381;28;20043;-74
2023/04/02 02:19:43;;;;;;;3.22;2.80;;;;;;;5.61;100.00;99313.63;10502696;28;20446;-73
2023/04/02 02:24:45;;;;;;;3.70;3.40;;;;;;;5.45;100.00;99323.56;10500955;28;20541;-73
2023/04/02 02:29:55;;;;;;;3.55;3.25;;;;;;;5.45;100.00;99329.66;10502389;28;20086;-73
2023/04/02 02:35:06;;;;;;;3.65;3.42;;;;;;;5.25;100.00;99342.25;10482801;28;20087;-73
2023/04/02 02:40:19;;;;;;;2.72;2.53;;;;;;;5.29;100.00;99351.72;10500971;28;20040;-73
2023/04/02 02:45:26;;;;;;;2.55;2.28;;;;;;;5.27;100.00;99366.53;10483102;28;20056;-73
2023/04/02 02:50:31;;;;;;;1.90;1.80;;;;;;;5.28;100.00;99373.44;10482773;28;20051;-73
2023/04/02 02:55:38;;;;;;;1.92;1.83;;;;;;;5.23;100.00;99376.16;10483303;28;20072;-73
2023/04/02 03:01:02;;;;;;;1.88;1.77;;;;;;;5.31;100.00;99389.00;10482496;28;20045;-73
2023/04/02 03:06:09;;;;;;;1.65;1.55;;;;;;;5.23;100.00;99389.19;10482066;28;20532;-73
2023/04/02 03:11:35;;;;;;;1.58;1.42;;;;;;;5.19;100.00;99404.91;10483568;28;20045;-73
2023/04/02 03:16:46;;;;;;;1.53;1.40;;;;;;;5.04;100.00;99413.88;10500510;28;20036;-72
2023/04/02 03:22:01;;;;;;;1.30;1.20;;;;;;;4.92;100.00;99429.75;10481930;28;20045;-72
2023/04/02 03:27:21;;;;;;;1.40;1.30;;;;;;;4.84;100.00;99435.09;10481993;28;20072;-72
2023/04/02 03:32:36;;;;;;;1.10;1.02;;;;;;;4.62;100.00;99446.75;10482790;28;20036;-72
2023/04/02 03:37:43;;;;;;;1.50;1.40;;;;;;;4.66;100.00;99464.06;10481254;28;20045;-73
2023/04/02 03:43:01;;;;;;;1.20;1.10;;;;;;;4.65;100.00;99483.13;10483225;28;20106;-73
2023/04/02 03:48:11;;;;;;;1.40;1.10;;;;;;;4.80;100.00;99493.31;10499529;28;20053;-72
2023/04/02 03:53:13;;;;;;;1.67;1.23;;;;;;;4.58;100.00;99507.56;10501189;28;20103;-71
2023/04/02 03:58:35;;;;;;;1.90;1.70;;;;;;;4.67;100.00;99510.03;10501120;28;20509;-71
2023/04/02 04:03:40;;;;;;;1.40;1.30;;;;;;;4.78;100.00;99518.50;10489190;28;20451;-71
2023/04/02 04:08:49;;;;;;;2.55;1.63;;;;;;;4.77;100.00;99532.41;10488945;28;20060;-71
2023/04/02 04:14:08;;;;;;;1.98;1.60;;;;;;;4.72;100.00;99550.72;10488841;28;20055;-72
2023/04/02 04:19:23;;;;;;;2.15;1.95;;;;;;;4.61;100.00;99567.41;10488911;28;20049;-72
2023/04/02 04:24:26;;;;;;;2.15;2.05;;;;;;;4.61;100.00;99578.66;10486374;28;20110;-71
2023/04/02 04:30:04;;;;;;;2.97;2.72;;;;;;;4.63;100.00;99581.25;10487230;28;20446;-72
2023/04/02 04:35:25;;;;;;;4.05;3.75;;;;;;;4.22;100.00;99600.91;10494633;22;20052;-69
2023/04/02 04:40:52;;;;;;;3.80;3.50;;;;;;;4.12;100.00;99609.66;10504197;28;20560;-71
2023/04/02 04:46:07;;;;;;;3.65;3.35;;;;;;;3.86;100.00;99615.22;10504247;28;20135;-68
2023/04/02 04:51:21;;;;;;;3.78;3.47;;;;;;;3.95;100.00;99630.69;10503066;28;20067;-69
2023/04/02 04:56:27;;;;;;;3.38;3.08;;;;;;;3.87;100.00;99646.38;10485731;28;20110;-69
2023/04/02 05:02:06;;;;;;;3.65;3.35;;;;;;;3.75;100.00;99657.75;10485298;28;20041;-69
2023/04/02 05:07:21;;;;;;;4.97;4.57;;;;;;;3.62;100.00;99665.69;10482173;28;20036;-69
2023/04/02 05:12:40;;;;;;;4.30;3.88;;;;;;;3.73;100.00;99684.66;10486803;28;20072;-69
2023/04/02 05:18:16;;;;;;;3.80;3.50;;;;;;;3.70;100.00;99692.47;10486354;28;20155;-69
2023/04/02 05:23:27;;;;;;;4.40;4.00;;;;;;;3.72;100.00;99711.53;10485269;28;20078;-69
2023/04/02 05:28:45;;;;;;;4.20;3.90;;;;;;;3.65;100.00;99715.91;10484967;28;20413;-69
2023/04/02 05:33:48;;;;;;;5.60;5.15;;;;;;;3.57;100.00;99730.72;10485884;28;20090;-69
2023/04/02 05:38:52;;;;;;;6.55;5.95;;;;;;;3.46;100.00;99737.75;10484940;28;20064;-69
2023/04/02 05:44:07;;;;;;;4.80;4.40;;;;;;;3.50;100.00;99745.50;10468926;28;20072;-69
2023/04/02 05:49:18;;;;;;;6.07;5.57;;;;;;;3.41;100.00;99758.56;10503332;28;20110;-69
2023/04/02 05:54:27;;;;;;;5.20;4.80;;;;;;;3.33;100.00;99773.34;10484270;28;20058;-69
2023/04/02 05:59:39;;;;;;;6.35;5.75;;;;;;;3.36;100.00;99773.31;10483831;28;20048;-69
2023/04/02 06:05:01;;;;;;;5.68;5.25;;;;;;;3.22;100.00;99783.78;10483790;28;20584;-69
2023/04/02 06:10:16;;;;;;;5.45;4.53;;;;;;;3.12;100.00;99796.84;10483545;28;20036;-69
2023/04/02 06:15:20;;;;;;;4.97;4.45;;;;;;;3.07;100.00;99807.25;10483506;28;20053;-69
2023/04/02 06:20:25;;;;;;;7.43;5.40;;;;;;;3.14;100.00;99821.91;10482201;28;20091;-69
2023/04/02 06:25:32;;;;;;;7.38;6.55;;;;;;;3.10;100.00;99834.94;10481751;28;20103;-69
2023/04/02 06:30:41;;;;;;;7.05;6.47;;;;;;;2.94;100.00;99840.19;10466018;28;20067;-69
2023/04/02 06:35:46;;;;;;;6.22;5.70;;;;;;;3.11;100.00;99852.25;10482004;28;20136;-69
2023/04/02 06:41:04;;;;;;;5.60;5.05;;;;;;;3.15;100.00;99860.03;10481422;28;20094;-67
2023/04/02 06:46:31;;;;;;;5.13;4.70;;;;;;;3.15;100.00;99869.56;10499889;28;20048;-68
2023/04/02 06:51:39;;;;;;;4.97;4.40;;;;;;;3.09;100.00;99882.56;10481456;28;20044;-71
2023/04/02 06:56:50;;;;;;;6.25;3.85;;;;;;;3.17;100.00;99892.03;10481440;28;20509;-69
2023/04/02 07:02:23;;;;;;;5.55;3.60;;;;;;;3.20;100.00;99902.44;10465935;28;20045;-68
2023/04/02 07:07:26;;;;;;;;;;;;;;;3.13;100.00;99916.28;10481469;28;20501;-69
2023/04/02 07:12:28;;;;;;;4.80;4.40;;;;;;;3.11;100.00;99920.66;10480773;28;20396;-70
2023/04/02 07:17:30;;;;;;;5.07;4.57;;;;;;;3.01;100.00;99932.81;10481681;28;20048;-70
2023/04/02 07:22:33;;;;;;;5.55;4.90;;;;;;;3.13;100.00;99933.63;10481250;28;20041;-69
2023/04/02 07:27:36;;;;;;;6.68;3.83;;;;;;;3.19;100.00;99939.69;10480987;28;20048;-70
2023/04/02 07:32:38;;;;;;;4.80;3.55;;;;;;;2.95;100.00;99960.50;10481981;28;20045;-69
2023/04/02 07:37:40;;;;;;;4.32;3.90;;;;;;;3.07;100.00;99970.88;10507573;28;20465;-68
2023/04/02 07:42:42;;;;;;;4.38;3.97;;;;;;;3.06;100.00;99978.66;10506966;28;20055;-69
2023/04/02 07:47:43;;;;;;;6.15;4.65;;;;;;;3.27;100.00;99987.25;10507030;28;20045;-70
2023/04/02 07:52:45;;;;;;;4.53;3.70;;;;;;;3.19;100.00;100002.00;10508248;28;20060;-69
2023/04/02 07:57:53;;;;;;;2.63;2.25;;;;;;;3.14;100.00;100006.31;10489165;28;20091;-69
2023/04/02 08:02:54;;;;;;;;;;;;;;;3.21;100.00;100002.84;10488082;28;20464;-69
2023/04/02 08:07:57;;;;;;;3.33;2.33;;;;;;;3.30;100.00;100012.38;10488330;28;19928;-70
2023/04/02 08:12:58;;;;;;;3.72;2.67;;;;;;;3.33;100.00;100030.56;10488123;28;20051;-68
2023/04/02 08:18:00;;;;;;;4.15;2.95;;;;;;;3.40;100.00;100031.38;10506291;28;20048;-71
2023/04/02 08:23:03;;;;;;;3.97;3.42;;;;;;;3.31;100.00;100036.59;10505510;28;20048;-70
2023/04/02 08:28:04;;;;;;;4.30;3.90;;;;;;;3.18;99.44;100048.75;10506131;28;20401;-69
2023/04/02 08:33:06;;;;;;;4.60;4.20;;;;;;;3.39;97.95;100056.50;10502942;28;20816;-70
2023/04/02 08:38:13;;;;;;;3.55;3.25;;;;;;;3.37;95.46;100067.78;10505567;28;20557;-70
2023/04/02 08:43:56;;;;;;;4.45;3.88;;;;;;;3.59;95.67;100076.41;10471630;28;20444;-71
2023/04/02 08:49:03;;;;;;;4.93;2.83;;;;;;;3.47;91.86;100092.88;10488437;28;20044;-70
2023/04/02 08:54:13;;;;;;;3.58;2.95;;;;;;;3.47;91.05;100098.06;10503946;28;20376;-69
2023/04/02 08:59:26;;;;;;;3.85;3.15;;;;;;;3.45;95.06;100098.09;10504283;28;20041;-68
2023/04/02 09:04:30;;;;;;;3.97;2.53;;;;;;;3.48;94.79;100105.84;10503745;28;20116;-69
2023/04/02 09:09:36;;;;;;;3.28;2.15;;;;;;;3.49;94.86;100111.91;10502879;28;20041;-70
2023/04/02 09:15:09;;;;;;;3.70;1.90;;;;;;;3.58;94.51;100118.84;10503042;28;20079;-69
2023/04/02 09:20:25;;;;;;;4.22;2.00;;;;;;;3.37;89.78;100132.75;10486169;28;20283;-71
2023/04/02 09:25:30;;;;;;;2.70;2.08;;;;;;;3.45;91.96;100141.38;10487935;28;20111;-70
2023/04/02 09:30:31;;;;;;;3.00;2.17;;;;;;;3.40;92.80;100151.78;10485413;28;20573;-67
2023/04/02 09:35:56;;;;;;;3.55;2.53;;;;;;;3.42;92.91;100165.66;10502300;28;20047;-67
2023/04/02 09:41:17;;;;;;;3.08;2.10;;;;;;;3.19;91.52;100173.44;10484902;28;20032;-69
2023/04/02 09:46:24;;;;;;;2.30;1.88;;;;;;;3.05;93.45;100185.53;10501811;28;20040;-69
2023/04/02 09:51:30;;;;;;;2.63;1.48;;;;;;;3.17;93.01;100189.88;10480791;28;20068;-70
2023/04/02 09:56:34;;;;;;;2.60;2.03;;;;;;;3.40;91.67;100203.75;10483873;28;20498;-70
2023/04/02 10:01:42;;;;;;;2.17;1.70;;;;;;;3.31;91.71;100208.94;10470809;28;20526;-71
2023/04/02 10:06:49;;;;;;;1.90;1.70;;;;;;;3.26;91.28;100221.94;10497776;28;20040;-71
2023/04/02 10:11:53;;;;;;;2.03;1.73;;;;;;;3.10;91.96;100222.81;10532211;28;20456;-71
2023/04/02 10:17:00;;;;;;;4.07;1.60;;;;;;;3.08;92.85;100234.91;10484231;28;20658;-72
2023/04/02 10:22:22;;;;;;;2.25;1.40;;;;;;;3.15;91.79;100241.84;10482273;28;20040;-71
2023/04/02 10:27:39;;;;;;;3.13;1.95;;;;;;;3.33;90.70;100248.78;10467207;28;20037;-71
2023/04/02 10:33:02;;;;;;;2.75;1.40;;;;;;;3.38;89.23;100257.47;10501277;28;20064;-72
2023/04/02 10:38:22;;;;;;;2.00;1.30;;;;;;;3.50;88.62;100264.41;10461856;22;20099;-75
2023/04/02 10:43:27;;;;;;;2.58;2.08;;;;;;;3.71;89.17;100269.59;10483496;28;20044;-76
2023/04/02 10:48:51;;;;;;;3.75;1.52;;;;;;;3.80;85.59;100276.53;10515714;28;20055;-76
2023/04/02 10:54:00;;;;;;;6.97;1.70;;;;;;;3.74;85.47;100280.00;10524584;28;20051;-76
2023/04/02 10:59:12;;;;;;;3.92;1.60;;;;;;;3.93;85.45;100292.97;10507518;28;20131;-75
2023/04/02 11:04:23;;;;;;;3.53;1.50;;;;;;;3.84;84.76;100293.84;10543177;28;20048;-76
2023/04/02 11:09:31;;;;;;;2.05;1.67;;;;;;;3.78;85.11;100299.06;10541647;28;20428;-76
2023/04/02 11:14:33;;;;;;;;;;;;;;;3.92;83.60;100302.53;10523908;28;20075;-75
2023/04/02 11:19:35;;;;;;;2.78;2.03;;;;;;;4.02;83.63;100321.59;10523001;28;19966;-76
2023/04/02 11:24:46;;;;;;;2.85;2.50;;;;;;;3.95;85.02;100320.75;10540909;28;20086;-76
2023/04/02 11:30:16;;;;;;;4.90;2.45;;;;;;;3.90;84.43;100324.22;10541879;28;20111;-76
2023/04/02 11:35:30;;;;;;;3.38;2.58;;;;;;;4.13;85.45;100326.81;10540935;28;20044;-76
2023/04/02 11:40:55;;;;;;;7.30;3.60;;;;;;;4.18;84.90;100338.06;10522934;28;20068;-77
2023/04/02 11:46:23;;;;;;;4.55;2.80;;;;;;;4.21;85.30;100340.69;10541625;28;20051;-74
2023/04/02 11:51:30;;;;;;;3.33;2.58;;;;;;;4.32;82.67;100351.91;10542263;28;20067;-76
2023/04/02 11:56:47;;;;;;;3.60;2.92;;;;;;;4.36;83.61;100355.38;10541846;28;20059;-76
2023/04/02 12:01:49;;;;;;;;;;;;;;;4.34;82.30;100360.63;10543018;28;20408;-76
2023/04/02 12:07:00;;;;;;;2.70;2.08;;;;;;;4.24;81.76;100358.88;10523943;28;20019;-78
2023/04/02 12:12:17;;;;;;;4.80;1.98;;;;;;;4.47;79.21;100374.44;10541916;28;20046;-75
2023/04/02 12:17:35;;;;;;;2.35;2.15;;;;;;;4.35;77.92;100371.88;10542426;28;20123;-77
2023/04/02 12:22:45;;;;;;;3.83;1.98;;;;;;;4.53;76.52;100375.31;10549082;28;20044;-77
2023/04/02 12:27:47;;;;;;;4.32;2.38;;;;;;;4.68;77.09;100384.81;10551672;28;20058;-76
2023/04/02 12:32:49;;;;;;;3.42;2.25;;;;;;;4.73;76.86;100397.84;10549966;28;20467;-77
2023/04/02 12:37:52;;;;;;;3.10;2.50;;;;;;;4.74;76.92;100402.19;10550344;28;20063;-77
2023/04/02 12:42:54;;;;;;;2.90;2.67;;;;;;;4.74;75.61;100402.19;10549499;28;20062;-78
2023/04/02 12:47:57;;;;;;;2.85;2.50;;;;;;;4.90;74.76;100401.25;10533277;28;20043;-78
2023/04/02 12:53:00;;;;;;;3.97;2.38;;;;;;;4.86;74.49;100407.34;10549032;28;20045;-76
2023/04/02 12:58:01;;;;;;;3.42;2.38;;;;;;;4.88;73.73;100405.63;10548694;28;20036;-77
2023/04/02 13:03:03;;;;;;;1.92;1.58;;;;;;;4.92;72.36;100407.34;10548251;28;20044;-77
2023/04/02 13:08:13;;;;;;;2.13;1.60;;;;;;;5.25;72.09;100411.56;10548452;28;20044;-76
2023/04/02 13:13:23;;;;;;;3.28;2.15;;;;;;;5.29;72.29;100430.69;10547718;28;20078;-77
2023/04/02 13:18:25;;;;;;;2.13;1.35;;;;;;;5.26;73.84;100428.06;10548279;28;20048;-78
2023/04/02 13:23:30;;;;;;;2.85;1.52;;;;;;;5.05;73.08;100442.06;10542982;28;20048;-79
2023/04/02 13:28:32;;;;;;;4.55;1.23;;;;;;;5.06;74.02;100439.44;10519694;28;20406;-79
2023/04/02 13:33:34;;;;;;;2.65;1.23;;;;;;;5.18;74.80;100443.75;10505188;28;20083;-77
2023/04/02 13:38:35;;;;;;;3.45;1.20;;;;;;;5.19;73.51;100452.44;10538909;28;20044;-78
2023/04/02 13:43:37;;;;;;;1.75;1.08;;;;;;;5.17;73.25;100460.25;10513262;28;20099;-78
2023/04/02 13:48:39;;;;;;;2.17;1.20;;;;;;;5.10;72.05;100468.09;10506281;28;20063;-78
2023/04/02 13:53:41;;;;;;;2.22;1.00;;;;;;;4.83;73.39;100474.25;10508155;28;20045;-77
2023/04/02 13:58:44;;;;;;;1.77;1.13;;;;;;;4.76;73.60;100479.44;10508919;28;20190;-78
2023/04/02 14:03:46;;;;;;;2.10;1.30;;;;;;;4.76;74.09;100489.84;10508215;28;20498;-79
2023/04/02 14:08:51;;;;;;;1.38;1.10;;;;;;;4.66;73.87;100487.28;10505922;28;20119;-77
2023/04/02 14:14:14;;;;;;;2.63;1.20;;;;;;;4.55;74.28;100497.66;10506115;28;20689;-77
2023/04/02 14:19:25;;;;;;;2.58;1.25;;;;;;;4.62;73.28;100508.97;10491839;28;20071;-78
2023/04/02 14:24:56;;;;;;;6.85;1.27;;;;;;;4.67;74.34;100507.22;10509444;28;20072;-77
2023/04/02 14:30:10;;;;;;;1.20;1.10;;;;;;;4.66;74.18;100516.78;10506837;28;20037;-78
2023/04/02 14:35:45;;;;;;;3.00;1.27;;;;;;;4.53;74.58;100517.63;10512513;28;20071;-79
2023/04/02 14:41:22;;;;;;;2.38;1.20;;;;;;;4.63;73.67;100527.19;10320759;28;20125;-77
2023/04/02 14:46:30;;;;;;;2.30;1.38;;;;;;;4.61;72.84;100528.06;10325735;28;20108;-80
2023/04/02 14:51:39;;;;;;;2.75;1.55;;;;;;;4.53;75.32;100531.53;10341297;28;20074;-79
2023/04/02 14:56:48;;;;;;;3.15;1.75;;;;;;;4.71;72.97;100538.47;10338432;28;20054;-79
2023/04/02 15:01:59;;;;;;;3.92;1.50;;;;;;;4.52;71.86;100547.16;10341890;28;20061;-80
2023/04/02 15:07:06;;;;;;;2.30;2.00;;;;;;;4.47;72.63;100543.66;10341954;28;20047;-78
2023/04/02 15:12:16;;;;;;;4.57;2.47;;;;;;;4.71;71.95;100541.06;10344198;28;20078;-78
2023/04/02 15:17:19;;;;;;;3.22;1.95;;;;;;;4.50;71.99;100544.53;10470390;28;20083;-77
2023/04/02 15:22:28;;;;;;;2.55;2.35;;;;;;;4.53;71.97;100552.34;10505421;28;20044;-77
2023/04/02 15:27:32;;;;;;;2.25;1.55;;;;;;;4.70;70.99;100559.31;10503047;28;20387;-78
2023/04/02 15:32:37;;;;;;;1.85;1.27;;;;;;;4.57;72.03;100555.84;10507994;28;20436;-78
2023/04/02 15:38:28;;;;;;;2.53;1.38;;;;;;;4.62;73.05;100563.66;10545923;28;20052;-79
2023/04/02 15:43:40;;;;;;;4.38;1.42;;;;;;;4.55;73.09;100562.75;10323129;28;20056;-78
2023/04/02 15:49:00;;;;;;;2.08;1.60;;;;;;;4.85;70.85;100569.72;10337115;28;20122;-78
2023/04/02 15:54:24;;;;;;;2.63;1.10;;;;;;;4.63;71.00;100579.25;10336861;28;20081;-79
2023/04/02 15:59:51;;;;;;;2.92;1.17;;;;;;;4.75;70.88;100589.69;10327760;28;20106;-80
2023/04/02 16:05:05;;;;;;;2.72;1.40;;;;;;;4.85;70.89;100592.31;10344490;28;20450;-79
2023/04/02 16:10:40;;;;;;;3.05;1.52;;;;;;;4.66;73.54;100587.09;10341703;28;20054;-77
2023/04/02 16:16:02;;;;;;;;;;;;;;;4.71;71.36;100603.59;10344628;28;20089;-77
2023/04/02 16:21:05;;;;;;;2.60;1.17;;;;;;;4.67;71.25;100608.78;10536495;28;19959;-77
2023/04/02 16:26:30;;;;;;;2.80;1.48;;;;;;;4.51;72.89;100613.94;10562783;28;20040;-78
2023/04/02 16:31:51;;;;;;;2.33;1.20;;;;;;;4.46;72.91;100626.09;10540243;28;20374;-79
2023/04/02 16:37:03;;;;;;;3.38;1.40;;;;;;;4.65;72.88;100629.63;10519922;22;20470;-74
2023/04/02 16:42:14;;;;;;;2.40;1.42;;;;;;;4.78;72.29;100631.38;10455166;28;20571;-74
2023/04/02 16:47:28;;;;;;;2.65;1.40;;;;;;;4.88;72.55;100639.19;10437369;28;20091;-75
2023/04/02 16:52:39;;;;;;;3.63;1.90;;;;;;;4.77;72.45;100644.38;10506831;28;20033;-74
2023/04/02 16:58:05;;;;;;;4.20;1.98;;;;;;;4.75;73.17;100647.00;10504005;28;20063;-74
2023/04/02 17:03:44;;;;;;;2.33;1.55;;;;;;;4.60;72.69;100651.28;10387146;28;20057;-75
2023/04/02 17:09:17;;;;;;;3.22;2.00;;;;;;;4.42;73.71;100660.78;10419841;28;20487;-74
2023/04/02 17:14:31;;;;;;;3.25;1.77;;;;;;;4.50;73.91;100668.63;10422610;28;20054;-74
2023/04/02 17:19:33;;;;;;;3.22;2.35;;;;;;;4.25;75.07;100670.25;10423494;28;20041;-74
2023/04/02 17:24:40;;;;;;;3.13;2.10;;;;;;;4.30;76.02;100677.25;10421286;28;20124;-74
2023/04/02 17:29:43;;;;;;;;;;;;;;;4.26;76.80;100685.91;10422102;28;20095;-74
2023/04/02 17:34:45;;;;;;;4.45;2.40;;;;;;;4.26;78.46;100674.63;10402908;28;19928;-73
2023/04/02 17:40:17;;;;;;;4.30;2.30;;;;;;;4.33;77.66;100684.19;10421161;28;20407;-73
2023/04/02 17:45:25;;;;;;;3.30;1.75;;;;;;;4.28;77.40;100689.38;10402099;28;20049;-74
2023/04/02 17:51:02;;;;;;;3.22;2.25;;;;;;;4.41;77.07;100692.03;10401950;28;20092;-74
2023/04/02 17:56:16;;;;;;;2.75;1.35;;;;;;;4.29;78.38;100690.22;10420015;28;20045;-74
2023/04/02 18:01:34;;;;;;;3.97;1.95;;;;;;;4.07;79.15;100694.47;10402984;28;20072;-74
2023/04/02 18:07:00;;;;;;;3.55;2.15;;;;;;;3.94;79.73;100706.56;10402464;28;20049;-74
2023/04/02 18:12:23;;;;;;;4.13;2.13;;;;;;;3.93;80.31;100710.00;10421553;28;20065;-74
2023/04/02 18:17:46;;;;;;;4.15;1.85;;;;;;;3.97;80.34;100713.50;10419425;28;20057;-74
2023/04/02 18:22:59;;;;;;;3.78;2.47;;;;;;;4.07;80.39;100732.63;10385311;28;20041;-74
2023/04/02 18:28:21;;;;;;;4.43;2.25;;;;;;;3.89;80.75;100729.03;10405705;28;20095;-74
2023/04/02 18:33:50;;;;;;;3.45;1.90;;;;;;;3.84;81.41;100738.56;10420638;28;20045;-74
2023/04/02 18:39:03;;;;;;;4.55;2.05;;;;;;;3.89;81.50;100741.19;10420415;28;20048;-75
2023/04/02 18:44:16;;;;;;;2.78;2.00;;;;;;;3.93;82.54;100748.16;10425303;28;20075;-74
2023/04/02 18:49:18;;;;;;;4.60;2.63;;;;;;;3.85;83.59;100758.53;10419195;28;20048;-74
2023/04/02 18:54:44;;;;;;;4.53;3.03;;;;;;;3.94;83.10;100763.78;10418545;28;20045;-74
2023/04/02 18:59:57;;;;;;;3.63;2.13;;;;;;;3.91;83.29;100779.34;10400277;28;20045;-74
2023/04/02 19:05:12;;;;;;;3.17;2.55;;;;;;;3.96;83.09;100780.25;10419261;28;20068;-73
2023/04/02 19:10:27;;;;;;;3.15;2.05;;;;;;;3.97;82.63;100775.91;10417475;28;20041;-74
2023/04/02 19:16:08;;;;;;;6.85;2.72;;;;;;;3.87;84.05;100785.41;10417994;28;20069;-74
2023/04/02 19:21:16;;;;;;;3.08;2.10;;;;;;;3.90;83.85;100790.63;10329389;28;20511;-74
2023/04/02 19:26:28;;;;;;;4.20;2.78;;;;;;;3.95;83.82;100796.72;10418754;28;20099;-74
2023/04/02 19:31:39;;;;;;;5.15;2.40;;;;;;;3.97;83.93;100799.34;10422516;28;20033;-74
2023/04/02 19:36:46;;;;;;;4.85;2.45;;;;;;;4.03;83.29;100804.59;10424253;28;20046;-74
2023/04/02 19:41:55;;;;;;;4.68;2.33;;;;;;;3.99;82.90;100808.03;10424628;28;20061;-74
2023/04/02 19:46:57;;;;;;;3.42;2.30;;;;;;;3.79;84.51;100818.25;10408239;28;20049;-74
2023/04/02 19:51:59;;;;;;;6.07;3.05;;;;;;;3.95;83.89;100817.53;10426446;28;20051;-73
2023/04/02 19:57:01;;;;;;;4.38;3.00;;;;;;;3.95;84.41;100820.13;10423767;28;20037;-74
2023/04/02 20:02:09;;;;;;;3.72;1.90;;;;;;;3.90;84.95;100823.56;10399866;28;20049;-74
2023/04/02 20:07:10;;;;;;;3.88;2.60;;;;;;;3.88;85.15;100826.16;10406243;28;20033;-73
2023/04/02 20:12:12;;;;;;;4.05;2.47;;;;;;;3.87;85.40;100831.34;10427010;28;20037;-73
2023/04/02 20:17:14;;;;;;;3.22;2.28;;;;;;;3.96;84.08;100832.28;10424600;28;20041;-74
2023/04/02 20:22:17;;;;;;;3.67;2.22;;;;;;;3.98;84.48;100832.28;10422698;28;20037;-75
2023/04/02 20:27:19;;;;;;;5.18;2.47;;;;;;;4.24;81.90;100837.69;10422860;28;20549;-73
2023/04/02 20:32:22;;;;;;;5.07;2.33;;;;;;;4.03;82.66;100846.22;10407673;28;20060;-75
2023/04/02 20:37:24;;;;;;;4.25;2.15;;;;;;;4.02;83.12;100850.53;10422683;28;20091;-74
2023/04/02 20:42:25;;;;;;;3.25;1.63;;;;;;;4.03;82.30;100862.69;10403169;28;20052;-74
2023/04/02 20:47:27;;;;;;;5.57;1.88;;;;;;;4.08;81.26;100864.47;10421599;28;20411;-74
2023/04/02 20:52:31;;;;;;;4.75;1.70;;;;;;;3.90;81.23;100867.78;10404861;28;20140;-74
2023/04/02 20:57:33;;;;;;;4.80;1.73;;;;;;;3.99;79.65;100873.94;10404241;28;20116;-74
2023/04/02 21:02:37;;;;;;;4.57;1.50;;;;;;;4.14;78.56;100877.50;10405223;28;20041;-75
2023/04/02 21:07:39;;;;;;;2.30;1.27;;;;;;;4.05;78.28;100881.78;10421770;28;20503;-71
2023/04/02 21:12:41;;;;;;;3.13;1.52;;;;;;;4.01;77.29;100876.53;10420859;28;20083;-71
2023/04/02 21:17:43;;;;;;;3.17;1.38;;;;;;;4.00;76.78;100880.00;10388488;28;20049;-72
2023/04/02 21:22:45;;;;;;;2.17;1.00;;;;;;;4.05;75.77;100889.59;10421266;28;20045;-71
2023/04/02 21:27:48;;;;;;;5.72;1.25;;;;;;;4.09;74.47;100881.81;10422162;28;20045;-72
2023/04/02 21:32:51;;;;;;;4.03;1.27;;;;;;;4.17;74.51;100895.75;10405428;28;20510;-72
2023/04/02 21:37:52;;;;;;;2.50;0.93;;;;;;;4.13;72.34;100887.06;10407508;28;20045;-72
2023/04/02 21:42:54;;;;;;;4.30;1.52;;;;;;;4.04;72.53;100893.06;10419957;28;20458;-72
2023/04/02 21:47:56;;;;;;;4.20;1.10;;;;;;;4.01;72.73;100902.56;10403091;28;20474;-72
2023/04/02 21:52:58;;;;;;;3.03;0.88;;;;;;;4.04;72.38;100906.06;10421302;28;20037;-72
2023/04/02 21:57:59;;;;;;;3.00;0.80;;;;;;;3.96;72.81;100906.84;10421627;28;20049;-72
2023/04/02 22:03:01;;;;;;;2.58;1.10;;;;;;;3.94;72.34;100919.84;10402775;28;20418;-72
2023/04/02 22:08:03;;;;;;;2.70;1.30;;;;;;;3.85;71.27;100913.66;10416851;28;20096;-72
2023/04/02 22:13:05;;;;;;;2.60;1.08;;;;;;;3.77;73.08;100924.00;10418141;28;20037;-72
2023/04/02 22:18:07;;;;;;;2.80;0.90;;;;;;;3.84;72.08;100923.19;10400224;28;20132;-70
2023/04/02 22:23:09;;;;;;;2.85;1.00;;;;;;;3.78;72.49;100933.56;10418785;28;20040;-71
2023/04/02 22:28:11;;;;;;;3.28;1.08;;;;;;;3.75;71.65;100934.38;10418617;28;20497;-72
2023/04/02 22:33:14;;;;;;;1.88;0.93;;;;;;;3.86;71.59;100931.03;10417458;28;20061;-71
2023/04/02 22:38:16;;;;;;;3.25;1.52;;;;;;;3.69;71.33;100930.88;10438093;23;20045;-76
2023/04/02 22:43:18;;;;;;;3.17;1.05;;;;;;;3.46;72.18;100943.59;10464703;28;20497;-76
2023/04/02 22:48:19;;;;;;;3.00;1.20;;;;;;;3.61;70.98;100948.97;10481490;28;20063;-75
2023/04/02 22:53:22;;;;;;;2.88;0.80;;;;;;;3.51;70.98;100955.78;10481998;28;20119;-75
2023/04/02 22:58:25;;;;;;;2.88;1.52;;;;;;;3.56;70.01;100962.78;10500094;28;20413;-75
2023/04/02 23:03:27;;;;;;;10.85;2.47;;;;;;;3.60;69.65;100967.16;10499082;28;20040;-76
2023/04/02 23:08:29;;;;;;;2.58;1.10;;;;;;;3.47;70.32;100969.59;10480934;28;20052;-76
2023/04/02 23:13:32;;;;;;;5.10;1.08;;;;;;;3.46;70.07;100978.28;10481127;28;20033;-75
2023/04/02 23:18:34;;;;;;;3.28;1.10;;;;;;;3.18;71.21;100981.34;10480971;28;20048;-76
2023/04/02 23:23:37;;;;;;;3.60;1.13;;;;;;;3.13;71.16;100990.81;10498643;28;20037;-76
2023/04/02 23:28:39;;;;;;;3.28;1.20;;;;;;;3.23;70.15;100995.28;10480536;28;20051;-76
2023/04/02 23:33:41;;;;;;;2.70;1.00;;;;;;;3.15;70.43;100989.13;10498462;28;20041;-75
2023/04/02 23:38:43;;;;;;;3.00;1.00;;;;;;;3.33;69.39;100988.50;10498250;28;20486;-75
2023/04/02 23:43:45;;;;;;;3.17;1.02;;;;;;;3.13;69.64;100994.28;10498834;28;20040;-75
2023/04/02 23:48:47;;;;;;;3.25;1.20;;;;;;;3.03;70.24;101000.22;10480514;28;20041;-75
2023/04/02 23:53:50;;;;;;;3.28;1.08;;;;;;;2.80;70.17;101001.59;10480661;28;20497;-76
2023/04/02 23:58:52;;;;;;;4.00;1.27;;;;;;;2.68;70.47;101004.88;10497848;28;20045;-75
